createdAt,value
2018-06-10T00:02:47.662Z,22.90
2018-06-10T00:05:16.654Z,22.90
2018-06-10T00:10:14.262Z,22.80
2018-06-10T00:20:09.115Z,22.60
2018-06-10T00:25:06.938Z,22.50
2018-06-10T00:32:33.434Z,22.50
2018-06-10T00:39:59.640Z,22.40
2018-06-10T00:49:54.486Z,22.40
2018-06-10T00:54:52.083Z,22.50
2018-06-10T00:57:21.070Z,22.40
2018-06-10T01:19:39.179Z,22.20
2018-06-10T01:22:08.114Z,22.20
2018-06-10T01:24:37.062Z,22.20
2018-06-10T01:27:06.015Z,22.10
2018-06-10T01:32:03.554Z,22.10
2018-06-10T01:34:32.511Z,22.10
2018-06-10T01:39:30.042Z,22.00
2018-06-10T01:41:58.990Z,22.00
2018-06-10T01:46:56.542Z,22.00
2018-06-10T01:49:25.506Z,22.00
2018-06-10T01:54:23.045Z,21.90
2018-06-10T01:59:20.602Z,21.90
2018-06-10T02:01:49.563Z,21.90
2018-06-10T02:06:47.150Z,21.90
2018-06-10T02:09:16.114Z,21.80
2018-06-10T02:14:13.629Z,21.80
2018-06-10T02:16:42.587Z,21.80
2018-06-10T02:19:11.519Z,21.80
2018-06-10T02:21:40.483Z,21.70
2018-06-10T02:26:38.021Z,21.80
2018-06-10T02:29:06.975Z,21.70
2018-06-10T02:36:33.135Z,21.70
2018-06-10T02:41:30.681Z,21.60
2018-06-10T02:43:59.619Z,21.60
2018-06-10T02:48:57.174Z,21.60
2018-06-10T02:56:23.353Z,21.50
2018-06-10T02:58:52.310Z,21.50
2018-06-10T03:01:21.262Z,21.40
2018-06-10T03:03:50.231Z,21.40
2018-06-10T03:08:47.818Z,21.40
2018-06-10T03:11:16.778Z,21.30
2018-06-10T03:18:42.910Z,21.30
2018-06-10T03:23:40.472Z,21.20
2018-06-10T03:33:35.218Z,21.10
2018-06-10T03:43:29.938Z,21.10
2018-06-10T03:46:42.063Z,21.00
2018-06-10T03:51:39.594Z,21.00
2018-06-10T03:54:08.538Z,21.00
2018-06-10T03:59:06.066Z,20.90
2018-06-10T04:01:35.027Z,20.90
2018-06-10T04:06:32.590Z,20.80
2018-06-10T04:09:01.579Z,20.80
2018-06-10T04:11:30.573Z,20.80
2018-06-10T04:13:59.504Z,20.80
2018-06-10T04:18:58.018Z,20.70
2018-06-10T04:21:26.962Z,20.70
2018-06-10T04:23:55.894Z,20.70
2018-06-10T04:28:53.446Z,20.70
2018-06-10T04:31:22.384Z,20.60
2018-06-10T04:36:19.906Z,20.70
2018-06-10T04:38:48.858Z,20.60
2018-06-10T04:43:46.408Z,20.70
2018-06-10T04:46:15.363Z,20.70
2018-06-10T04:48:44.299Z,20.60
2018-06-10T04:58:39.030Z,20.70
2018-06-10T05:06:05.256Z,20.70
2018-06-10T05:08:34.215Z,20.80
2018-06-10T05:13:31.838Z,20.70
2018-06-10T05:16:00.750Z,20.70
2018-06-10T05:18:29.722Z,20.70
2018-06-10T05:20:58.678Z,20.80
2018-06-10T05:25:56.207Z,20.80
2018-06-10T05:33:22.563Z,20.80
2018-06-10T05:35:51.523Z,20.80
2018-06-10T05:40:49.055Z,20.90
2018-06-10T05:50:43.790Z,21.10
2018-06-10T05:55:41.317Z,21.30
2018-06-10T05:58:10.278Z,21.30
2018-06-10T06:03:07.841Z,21.50
2018-06-10T06:05:36.790Z,21.60
2018-06-10T06:08:05.746Z,21.60
2018-06-10T06:10:34.682Z,21.70
2018-06-10T06:18:00.858Z,22.00
2018-06-10T06:22:58.410Z,22.30
2018-06-10T06:25:27.363Z,22.40
2018-06-10T06:32:53.549Z,22.80
2018-06-10T06:37:51.078Z,22.90
2018-06-10T06:40:20.035Z,23.00
2018-06-10T06:45:17.582Z,23.10
2018-06-10T06:47:46.538Z,23.10
2018-06-10T06:52:44.124Z,23.10
2018-06-10T07:00:10.307Z,23.00
2018-06-10T07:07:36.488Z,22.70
2018-06-10T07:10:05.448Z,22.70
2018-06-10T07:15:03.041Z,22.50
2018-06-10T07:17:31.990Z,22.50
2018-06-10T07:22:29.534Z,22.50
2018-06-10T07:29:55.679Z,22.70
2018-06-10T07:32:24.646Z,22.70
2018-06-10T07:37:22.195Z,22.90
2018-06-10T07:47:16.983Z,23.30
2018-06-10T07:52:14.539Z,23.70
2018-06-10T07:57:12.079Z,24.30
2018-06-10T07:59:41.027Z,24.50
2018-06-10T08:02:09.962Z,24.80
2018-06-10T08:07:07.503Z,25.20
2018-06-10T08:14:33.867Z,25.70
2018-06-10T08:22:00.050Z,26.10
2018-06-10T08:24:28.992Z,26.20
2018-06-10T08:29:26.543Z,26.20
2018-06-10T08:39:21.303Z,26.30
2018-06-10T08:46:47.423Z,26.70
2018-06-10T08:54:13.624Z,26.90
2018-06-10T09:01:39.866Z,27.30
2018-06-10T09:04:08.846Z,27.50
2018-06-10T09:06:37.807Z,27.70
2018-06-10T09:09:08.788Z,27.70
2018-06-10T09:14:06.408Z,27.80
2018-06-10T09:16:35.383Z,28.00
2018-06-10T09:21:33.013Z,28.20
2018-06-10T09:28:59.180Z,28.20
2018-06-10T09:31:28.145Z,28.20
2018-06-10T09:33:57.087Z,28.10
2018-06-10T09:43:51.874Z,27.80
2018-06-10T09:53:46.666Z,27.90
2018-06-10T10:01:12.810Z,28.30
2018-06-10T10:08:39.218Z,28.80
2018-06-10T10:13:36.754Z,29.20
2018-06-10T10:26:00.147Z,29.80
2018-06-10T10:30:57.714Z,29.70
2018-06-10T10:33:26.676Z,29.70
2018-06-10T10:38:24.227Z,30.00
2018-06-10T10:45:50.382Z,30.10
2018-06-10T10:48:19.338Z,30.10
2018-06-10T10:53:16.886Z,30.40
2018-06-10T11:00:42.989Z,30.50
2018-06-10T11:03:11.950Z,30.50
2018-06-10T11:08:09.477Z,30.60
2018-06-10T11:10:38.406Z,30.60
2018-06-10T11:15:35.976Z,30.60
2018-06-10T11:18:04.890Z,30.60
2018-06-10T11:23:02.479Z,30.50
2018-06-10T11:30:28.648Z,30.60
2018-06-10T11:40:23.382Z,30.30
2018-06-10T11:45:20.955Z,30.40
2018-06-10T11:47:49.912Z,30.50
2018-06-10T11:52:47.418Z,30.70
2018-06-10T11:57:46.129Z,30.80
2018-06-10T12:05:12.328Z,31.00
2018-06-10T12:15:08.562Z,31.00
2018-06-10T12:17:37.490Z,30.80
2018-06-10T12:22:35.208Z,30.50
2018-06-10T12:32:29.850Z,30.30
2018-06-10T12:37:27.418Z,30.40
2018-06-10T12:39:56.404Z,30.40
2018-06-10T12:44:54.014Z,30.40
2018-06-10T12:52:20.258Z,30.40
2018-06-10T12:54:49.232Z,30.30
2018-06-10T12:57:18.147Z,30.30
2018-06-10T12:59:47.074Z,30.30
2018-06-10T13:07:13.204Z,30.30
2018-06-10T13:17:07.947Z,30.20
2018-06-10T13:24:34.125Z,29.90
2018-06-10T13:32:00.195Z,29.90
2018-06-10T13:51:49.206Z,29.60
2018-06-10T14:01:43.882Z,29.10
2018-06-10T14:06:41.533Z,28.90
2018-06-10T14:09:10.411Z,28.80
2018-06-10T14:16:36.570Z,28.70
2018-06-10T14:24:02.711Z,28.60
2018-06-10T14:29:00.286Z,28.40
2018-06-10T14:38:54.959Z,28.10
2018-06-10T14:41:23.876Z,28.10
2018-06-10T14:46:21.391Z,28.00
2018-06-10T14:48:52.507Z,27.90
2018-06-10T14:51:21.455Z,27.80
2018-06-10T15:01:16.205Z,27.50
2018-06-10T15:21:05.403Z,27.40
2018-06-10T15:26:02.942Z,27.50
2018-06-10T15:28:31.902Z,27.50
2018-06-10T15:33:29.483Z,27.50
2018-06-10T15:35:58.438Z,27.50
2018-06-10T15:38:27.438Z,27.50
2018-06-10T15:48:22.157Z,27.30
2018-06-10T15:55:48.307Z,27.30
2018-06-10T15:58:17.268Z,27.30
2018-06-10T16:03:14.842Z,27.20
2018-06-10T16:05:43.798Z,27.20
2018-06-10T16:08:12.764Z,27.20
2018-06-10T16:18:07.488Z,27.00
2018-06-10T16:20:36.439Z,27.00
2018-06-10T16:23:05.367Z,27.00
2018-06-10T16:25:34.298Z,27.00
2018-06-10T16:33:00.450Z,26.90
2018-06-10T16:35:29.394Z,26.90
2018-06-10T16:37:58.363Z,26.80
2018-06-10T16:40:27.297Z,26.80
2018-06-10T16:42:56.250Z,26.80
2018-06-10T16:45:28.710Z,26.70
2018-06-10T16:52:54.896Z,26.60
2018-06-10T17:05:18.251Z,26.40
2018-06-10T17:10:15.774Z,26.30
2018-06-10T17:20:10.642Z,26.40
2018-06-10T17:25:08.201Z,26.40
2018-06-10T17:27:37.158Z,26.40
2018-06-10T17:32:34.721Z,26.40
2018-06-10T17:35:03.687Z,26.40
2018-06-10T17:40:01.187Z,26.30
2018-06-10T17:42:30.193Z,26.40
2018-06-10T17:44:59.117Z,26.40
2018-06-10T17:47:28.114Z,26.40
2018-06-10T17:52:25.612Z,26.40
2018-06-10T18:02:20.265Z,26.40
2018-06-10T18:09:46.388Z,26.40
2018-06-10T18:19:41.119Z,26.20
2018-06-10T18:27:07.218Z,26.10
2018-06-10T18:29:36.174Z,26.00
2018-06-10T18:34:33.711Z,25.90
2018-06-10T18:41:59.834Z,25.70
2018-06-10T18:51:54.530Z,25.50
2018-06-10T19:01:49.238Z,25.30
2018-06-10T19:06:46.739Z,25.20
2018-06-10T19:19:10.042Z,24.90
2018-06-10T19:24:07.686Z,24.80
2018-06-10T19:26:36.655Z,24.80
2018-06-10T19:31:34.215Z,24.70
2018-06-10T19:41:28.978Z,24.50
2018-06-10T19:58:49.422Z,24.10
2018-06-10T20:06:15.603Z,24.00
2018-06-10T20:08:44.538Z,24.00
2018-06-10T20:13:42.119Z,23.90
2018-06-10T20:16:11.126Z,23.90
2018-06-10T20:18:40.095Z,23.80
2018-06-10T20:21:09.062Z,23.80
2018-06-10T20:26:06.989Z,23.70
2018-06-10T20:31:04.570Z,23.60
2018-06-10T20:33:33.499Z,23.60
2018-06-10T20:40:59.725Z,23.50
2018-06-10T20:45:57.339Z,23.40
2018-06-10T20:55:52.107Z,23.30
2018-06-10T21:03:18.282Z,23.20
2018-06-10T21:05:47.251Z,23.20
2018-06-10T21:08:16.256Z,23.10
2018-06-10T21:10:45.159Z,23.10
2018-06-10T21:18:11.294Z,23.00
2018-06-10T21:25:37.459Z,22.90
2018-06-10T21:33:03.627Z,22.80
2018-06-10T21:35:32.584Z,22.70
2018-06-10T21:38:01.543Z,22.70
2018-06-10T21:40:30.502Z,22.60
2018-06-10T21:45:28.082Z,22.50
2018-06-10T21:47:57.038Z,22.50
2018-06-10T21:52:54.590Z,22.40
2018-06-10T21:55:23.551Z,22.30
2018-06-10T21:57:52.510Z,22.30
2018-06-10T22:00:25.966Z,22.20
2018-06-10T22:02:54.922Z,22.20
2018-06-10T22:05:23.875Z,22.20
2018-06-10T22:10:21.452Z,22.10
2018-06-10T22:17:47.598Z,21.90
2018-06-10T22:20:16.540Z,21.80
2018-06-10T22:27:42.708Z,21.70
2018-06-10T22:32:40.803Z,21.60
2018-06-10T22:37:38.371Z,21.60
2018-06-10T22:40:07.326Z,21.60
2018-06-10T22:45:05.052Z,21.50
2018-06-10T22:54:59.746Z,21.30
2018-06-10T22:59:57.304Z,21.20
2018-06-10T23:09:52.063Z,21.10
2018-06-10T23:17:18.187Z,21.00
2018-06-10T23:19:47.151Z,21.00
2018-06-10T23:24:44.693Z,20.90
2018-06-10T23:27:13.678Z,20.80
2018-06-10T23:32:11.633Z,20.80
2018-06-10T23:37:09.190Z,20.70
2018-06-10T23:39:38.139Z,20.70
2018-06-10T23:44:35.690Z,20.70
2018-06-10T23:52:01.847Z,20.40
2018-06-10T23:54:30.778Z,20.40
